sensor_id;sensor_type;location;lat;lon;timestamp;pressure;altitude;pressure_sealevel;temperature;humidity
19600;BME280;9947;57.722;12.012;2023-05-29T00:00:05;101511.53;;;8.05;100.00
19600;BME280;9947;57.722;12.012;2023-05-29T00:02:33;101518.28;;;7.97;100.00
19600;BME280;9947;57.722;12.012;2023-05-29T00:05:04;101510.56;;;7.91;100.00
19600;BME280;9947;57.722;12.012;2023-05-29T00:07:43;101509.16;;;7.84;100.00
19600;BME280;9947;57.722;12.012;2023-05-29T00:10:23;101517.44;;;7.79;100.00
19600;BME280;9947;57.722;12.012;2023-05-29T00:12:56;101513.88;;;7.79;100.00
19600;BME280;9947;57.722;12.012;2023-05-29T00:15:24;101512.31;;;7.74;100.00
19600;BME280;9947;57.722;12.012;2023-05-29T00:17:51;101519.91;;;7.66;100.00
19600;BME280;9947;57.722;12.012;2023-05-29T00:20:19;101527.44;;;7.60;100.00
19600;BME280;9947;57.722;12.012;2023-05-29T00:22:47;101525.13;;;7.52;100.00
19600;BME280;9947;57.722;12.012;2023-05-29T00:25:17;101528.13;;;7.46;100.00
19600;BME280;9947;57.722;12.012;2023-05-29T00:27:49;101532.19;;;7.37;100.00
19600;BME280;9947;57.722;12.012;2023-05-29T00:30:17;101535.09;;;7.33;100.00
19600;BME280;9947;57.722;12.012;2023-05-29T00:32:47;101526.78;;;7.20;100.00
19600;BME280;9947;57.722;12.012;2023-05-29T00:35:18;101528.75;;;7.17;100.00
19600;BME280;9947;57.722;12.012;2023-05-29T00:37:49;101528.97;;;7.12;100.00
19600;BME280;9947;57.722;12.012;2023-05-29T00:40:18;101531.19;;;7.04;100.00
19600;BME280;9947;57.722;12.012;2023-05-29T00:42:48;101526.88;;;7.00;100.00
19600;BME280;9947;57.722;12.012;2023-05-29T00:45:16;101534.44;;;7.10;100.00
19600;BME280;9947;57.722;12.012;2023-05-29T00:47:51;101542.56;;;7.09;100.00
19600;BME280;9947;57.722;12.012;2023-05-29T00:50:52;101534.28;;;7.14;100.00
19600;BME280;9947;57.722;12.012;2023-05-29T00:53:26;101543.59;;;7.06;100.00
19600;BME280;9947;57.722;12.012;2023-05-29T00:56:18;101535.69;;;7.03;100.00
19600;BME280;9947;57.722;12.012;2023-05-29T00:58:49;101546.44;;;7.03;100.00
19600;BME280;9947;57.722;12.012;2023-05-29T01:01:17;101546.56;;;7.00;100.00
19600;BME280;9947;57.722;12.012;2023-05-29T01:03:47;101546.56;;;7.00;100.00
19600;BME280;9947;57.722;12.012;2023-05-29T01:06:20;101557.63;;;6.94;100.00
19600;BME280;9947;57.722;12.012;2023-05-29T01:08:51;101556.03;;;6.90;100.00
19600;BME280;9947;57.722;12.012;2023-05-29T01:11:24;101555.09;;;6.91;100.00
19600;BME280;9947;57.722;12.012;2023-05-29T01:14:01;101553.34;;;6.90;100.00
19600;BME280;9947;57.722;12.012;2023-05-29T01:16:35;101555.97;;;6.92;100.00
19600;BME280;9947;57.722;12.012;2023-05-29T01:19:15;101558.81;;;6.89;100.00
19600;BME280;9947;57.722;12.012;2023-05-29T01:21:56;101553.72;;;6.83;100.00
19600;BME280;9947;57.722;12.012;2023-05-29T01:24:32;101554.69;;;6.82;100.00
19600;BME280;9947;57.722;12.012;2023-05-29T01:27:08;101557.63;;;6.75;100.00
19600;BME280;9947;57.722;12.012;2023-05-29T01:29:39;101552.06;;;6.80;100.00
19600;BME280;9947;57.722;12.012;2023-05-29T01:32:08;101554.16;;;6.92;100.00
19600;BME280;9947;57.722;12.012;2023-05-29T01:34:35;101562.75;;;6.82;100.00
19600;BME280;9947;57.722;12.012;2023-05-29T01:37:03;101561.19;;;6.76;100.00
19600;BME280;9947;57.722;12.012;2023-05-29T01:39:31;101562.50;;;6.67;100.00
19600;BME280;9947;57.722;12.012;2023-05-29T01:41:59;101567.16;;;6.64;100.00
19600;BME280;9947;57.722;12.012;2023-05-29T01:44:31;101560.13;;;6.61;100.00
19600;BME280;9947;57.722;12.012;2023-05-29T01:46:59;101563.75;;;6.60;100.00
19600;BME280;9947;57.722;12.012;2023-05-29T01:49:26;101561.44;;;6.53;100.00
19600;BME280;9947;57.722;12.012;2023-05-29T01:51:56;101574.00;;;6.52;100.00
19600;BME280;9947;57.722;12.012;2023-05-29T01:54:32;101574.31;;;6.44;100.00
19600;BME280;9947;57.722;12.012;2023-05-29T01:56:59;101571.78;;;6.41;100.00
19600;BME280;9947;57.722;12.012;2023-05-29T01:59:30;101570.78;;;6.44;100.00
19600;BME280;9947;57.722;12.012;2023-05-29T02:02:04;101568.97;;;6.44;100.00
19600;BME280;9947;57.722;12.012;2023-05-29T02:04:31;101570.91;;;6.41;100.00
19600;BME280;9947;57.722;12.012;2023-05-29T02:07:00;101571.13;;;6.36;100.00
19600;BME280;9947;57.722;12.012;2023-05-29T02:09:28;101568.81;;;6.29;100.00
19600;BME280;9947;57.722;12.012;2023-05-29T02:11:56;101569.00;;;6.24;100.00
19600;BME280;9947;57.722;12.012;2023-05-29T02:14:23;101567.53;;;6.17;100.00
19600;BME280;9947;57.722;12.012;2023-05-29T02:16:57;101573.13;;;6.12;100.00
19600;BME280;9947;57.722;12.012;2023-05-29T02:19:24;101570.56;;;6.09;100.00
19600;BME280;9947;57.722;12.012;2023-05-29T02:21:54;101577.03;;;6.05;100.00
19600;BME280;9947;57.722;12.012;2023-05-29T02:24:22;101583.41;;;6.03;100.00
19600;BME280;9947;57.722;12.012;2023-05-29T02:26:49;101580.16;;;5.95;100.00
19600;BME280;9947;57.722;12.012;2023-05-29T02:29:19;101580.63;;;5.84;100.00
19600;BME280;9947;57.722;12.012;2023-05-29T02:31:53;101587.94;;;5.80;100.00
19600;BME280;9947;57.722;12.012;2023-05-29T02:34:20;101580.88;;;5.78;100.00
19600;BME280;9947;57.722;12.012;2023-05-29T02:36:49;101587.38;;;5.72;100.00
19600;BME280;9947;57.722;12.012;2023-05-29T02:39:17;101584.16;;;5.64;100.00
19600;BME280;9947;57.722;12.012;2023-05-29T02:41:46;101596.16;;;5.55;100.00
19600;BME280;9947;57.722;12.012;2023-05-29T02:44:18;101594.59;;;5.50;100.00
19600;BME280;9947;57.722;12.012;2023-05-29T02:46:45;101592.97;;;5.46;100.00
19600;BME280;9947;57.722;12.012;2023-05-29T02:49:13;101594.53;;;5.51;100.00
19600;BME280;9947;57.722;12.012;2023-05-29T02:51:42;101593.66;;;5.51;100.00
19600;BME280;9947;57.722;12.012;2023-05-29T02:54:11;101597.28;;;5.50;100.00
19600;BME280;9947;57.722;12.012;2023-05-29T02:56:39;101588.16;;;5.54;100.00
19600;BME280;9947;57.722;12.012;2023-05-29T02:59:09;101589.72;;;5.60;100.00
19600;BME280;9947;57.722;12.012;2023-05-29T03:04:07;101599.44;;;5.62;100.00
19600;BME280;9947;57.722;12.012;2023-05-29T03:06:37;101590.19;;;5.69;100.00
19600;BME280;9947;57.722;12.012;2023-05-29T03:09:04;101592.50;;;5.78;100.00
19600;BME280;9947;57.722;12.012;2023-05-29T03:11:33;101595.69;;;5.86;100.00
19600;BME280;9947;57.722;12.012;2023-05-29T03:14:01;101606.94;;;5.96;100.00
19600;BME280;9947;57.722;12.012;2023-05-29T03:16:30;101604.88;;;6.03;100.00
19600;BME280;9947;57.722;12.012;2023-05-29T03:18:58;101600.84;;;6.13;100.00
19600;BME280;9947;57.722;12.012;2023-05-29T03:21:26;101602.28;;;6.20;100.00
19600;BME280;9947;57.722;12.012;2023-05-29T03:23:56;101599.28;;;6.28;100.00
19600;BME280;9947;57.722;12.012;2023-05-29T03:26:24;101600.31;;;6.44;100.00
19600;BME280;9947;57.722;12.012;2023-05-29T03:28:51;101608.13;;;6.69;100.00
19600;BME280;9947;57.722;12.012;2023-05-29T03:31:20;101611.16;;;6.61;100.00
19600;BME280;9947;57.722;12.012;2023-05-29T03:33:47;101613.63;;;6.66;100.00
19600;BME280;9947;57.722;12.012;2023-05-29T03:36:14;101613.06;;;6.78;100.00
19600;BME280;9947;57.722;12.012;2023-05-29T03:38:42;101612.31;;;7.31;100.00
19600;BME280;9947;57.722;12.012;2023-05-29T03:41:10;101616.47;;;8.42;100.00
19600;BME280;9947;57.722;12.012;2023-05-29T03:43:38;101616.09;;;9.14;100.00
19600;BME280;9947;57.722;12.012;2023-05-29T03:46:07;101611.72;;;8.47;100.00
19600;BME280;9947;57.722;12.012;2023-05-29T03:48:34;101618.47;;;8.03;100.00
19600;BME280;9947;57.722;12.012;2023-05-29T03:51:04;101608.72;;;7.66;100.00
19600;BME280;9947;57.722;12.012;2023-05-29T03:53:32;101601.09;;;7.40;100.00
19600;BME280;9947;57.722;12.012;2023-05-29T03:55:59;101614.06;;;7.49;100.00
19600;BME280;9947;57.722;12.012;2023-05-29T03:58:30;101612.31;;;7.31;100.00
19600;BME280;9947;57.722;12.012;2023-05-29T04:00:57;101624.47;;;6.83;100.00
19600;BME280;9947;57.722;12.012;2023-05-29T04:03:25;101624.69;;;6.97;100.00
19600;BME280;9947;57.722;12.012;2023-05-29T04:05:52;101620.69;;;7.06;100.00
19600;BME280;9947;57.722;12.012;2023-05-29T04:08:21;101622.38;;;7.08;100.00
19600;BME280;9947;57.722;12.012;2023-05-29T04:10:48;101618.34;;;6.98;100.00
19600;BME280;9947;57.722;12.012;2023-05-29T04:13:19;101618.91;;;7.24;100.00
19600;BME280;9947;57.722;12.012;2023-05-29T04:15:47;101615.97;;;7.47;100.00
19600;BME280;9947;57.722;12.012;2023-05-29T04:18:18;101625.63;;;7.51;100.00
19600;BME280;9947;57.722;12.012;2023-05-29T04:20:45;101622.78;;;7.54;100.00
19600;BME280;9947;57.722;12.012;2023-05-29T04:23:13;101623.75;;;7.70;100.00
19600;BME280;9947;57.722;12.012;2023-05-29T04:25:40;101625.44;;;7.90;100.00
19600;BME280;9947;57.722;12.012;2023-05-29T04:28:09;101627.47;;;7.68;100.00
19600;BME280;9947;57.722;12.012;2023-05-29T04:30:39;101638.06;;;8.57;100.00
19600;BME280;9947;57.722;12.012;2023-05-29T04:33:10;101636.63;;;10.38;100.00
19600;BME280;9947;57.722;12.012;2023-05-29T04:35:38;101635.09;;;11.19;100.00
19600;BME280;9947;57.722;12.012;2023-05-29T04:38:09;101637.84;;;13.75;100.00
19600;BME280;9947;57.722;12.012;2023-05-29T04:40:38;101649.22;;;13.32;100.00
19600;BME280;9947;57.722;12.012;2023-05-29T04:43:06;101646.31;;;14.75;85.45
19600;BME280;9947;57.722;12.012;2023-05-29T04:45:34;101646.47;;;14.85;89.74
19600;BME280;9947;57.722;12.012;2023-05-29T04:48:03;101642.84;;;15.84;79.34
19600;BME280;9947;57.722;12.012;2023-05-29T04:50:31;101652.66;;;15.09;74.32
19600;BME280;9947;57.722;12.012;2023-05-29T04:52:58;101642.84;;;15.84;72.89
19600;BME280;9947;57.722;12.012;2023-05-29T04:55:26;101641.19;;;16.24;62.23
19600;BME280;9947;57.722;12.012;2023-05-29T04:57:55;101644.94;;;17.76;59.24
19600;BME280;9947;57.722;12.012;2023-05-29T05:00:23;101650.88;;;18.00;55.72
19600;BME280;9947;57.722;12.012;2023-05-29T05:02:51;101652.22;;;16.64;60.75
19600;BME280;9947;57.722;12.012;2023-05-29T05:05:19;101651.88;;;18.94;52.74
19600;BME280;9947;57.722;12.012;2023-05-29T05:07:48;101662.38;;;18.23;50.71
19600;BME280;9947;57.722;12.012;2023-05-29T05:10:15;101664.38;;;16.72;53.63
19600;BME280;9947;57.722;12.012;2023-05-29T05:12:42;101663.41;;;19.35;49.76
19600;BME280;9947;57.722;12.012;2023-05-29T05:15:10;101662.28;;;20.18;46.43
19600;BME280;9947;57.722;12.012;2023-05-29T05:17:37;101657.06;;;18.22;49.01
19600;BME280;9947;57.722;12.012;2023-05-29T05:20:05;101658.47;;;17.37;52.69
19600;BME280;9947;57.722;12.012;2023-05-29T05:22:34;101665.22;;;16.51;51.49
19600;BME280;9947;57.722;12.012;2023-05-29T05:25:03;101658.38;;;16.15;54.45
19600;BME280;9947;57.722;12.012;2023-05-29T05:27:33;101656.84;;;14.80;56.54
19600;BME280;9947;57.722;12.012;2023-05-29T05:30:02;101660.19;;;15.39;58.69
19600;BME280;9947;57.722;12.012;2023-05-29T05:32:29;101657.59;;;14.01;68.05
19600;BME280;9947;57.722;12.012;2023-05-29T05:34:59;101652.16;;;15.16;64.16
19600;BME280;9947;57.722;12.012;2023-05-29T05:37:31;101645.94;;;14.69;60.85
19600;BME280;9947;57.722;12.012;2023-05-29T05:39:59;101645.72;;;15.17;57.98
19600;BME280;9947;57.722;12.012;2023-05-29T05:42:28;101651.00;;;15.40;55.61
19600;BME280;9947;57.722;12.012;2023-05-29T05:44:56;101648.34;;;15.72;55.97
19600;BME280;9947;57.722;12.012;2023-05-29T05:47:25;101654.75;;;16.98;53.54
19600;BME280;9947;57.722;12.012;2023-05-29T05:49:52;101650.16;;;16.99;52.35
19600;BME280;9947;57.722;12.012;2023-05-29T05:52:20;101648.28;;;16.99;51.44
19600;BME280;9947;57.722;12.012;2023-05-29T05:54:49;101653.34;;;17.04;49.83
19600;BME280;9947;57.722;12.012;2023-05-29T05:57:17;101664.31;;;17.63;49.00
19600;BME280;9947;57.722;12.012;2023-05-29T05:59:48;101649.25;;;17.19;50.35
19600;BME280;9947;57.722;12.012;2023-05-29T06:02:16;101656.16;;;17.82;49.18
19600;BME280;9947;57.722;12.012;2023-05-29T06:04:43;101659.78;;;20.07;42.86
19600;BME280;9947;57.722;12.012;2023-05-29T06:07:11;101663.41;;;19.62;42.69
19600;BME280;9947;57.722;12.012;2023-05-29T06:09:38;101665.84;;;19.65;40.88
19600;BME280;9947;57.722;12.012;2023-05-29T06:12:05;101658.88;;;19.44;41.95
19600;BME280;9947;57.722;12.012;2023-05-29T06:14:34;101666.66;;;18.55;42.06
19600;BME280;9947;57.722;12.012;2023-05-29T06:17:02;101668.09;;;18.78;42.62
19600;BME280;9947;57.722;12.012;2023-05-29T06:19:30;101667.69;;;17.86;43.14
19600;BME280;9947;57.722;12.012;2023-05-29T06:21:56;101672.31;;;18.24;43.21
19600;BME280;9947;57.722;12.012;2023-05-29T06:24:24;101669.88;;;18.31;45.56
19600;BME280;9947;57.722;12.012;2023-05-29T06:26:51;101670.88;;;18.30;43.03
19600;BME280;9947;57.722;12.012;2023-05-29T06:29:18;101683.41;;;17.13;45.19
19600;BME280;9947;57.722;12.012;2023-05-29T06:31:45;101670.19;;;16.88;45.42
19600;BME280;9947;57.722;12.012;2023-05-29T06:34:13;101676.91;;;17.05;45.97
19600;BME280;9947;57.722;12.012;2023-05-29T06:36:40;101673.19;;;18.05;44.68
19600;BME280;9947;57.722;12.012;2023-05-29T06:39:08;101680.84;;;17.52;46.01
19600;BME280;9947;57.722;12.012;2023-05-29T06:41:35;101678.81;;;16.83;46.97
19600;BME280;9947;57.722;12.012;2023-05-29T06:44:02;101684.50;;;16.18;49.04
19600;BME280;9947;57.722;12.012;2023-05-29T06:46:31;101681.41;;;16.43;48.41
19600;BME280;9947;57.722;12.012;2023-05-29T06:48:59;101690.38;;;16.66;48.12
19600;BME280;9947;57.722;12.012;2023-05-29T06:51:28;101690.22;;;16.68;50.08
19600;BME280;9947;57.722;12.012;2023-05-29T06:53:56;101689.72;;;15.78;50.20
19600;BME280;9947;57.722;12.012;2023-05-29T06:56:23;101693.78;;;16.47;51.15
19600;BME280;9947;57.722;12.012;2023-05-29T06:58:52;101697.63;;;15.92;51.40
19600;BME280;9947;57.722;12.012;2023-05-29T07:01:19;101698.50;;;16.13;50.65
19600;BME280;9947;57.722;12.012;2023-05-29T07:03:46;101698.03;;;16.19;50.85
19600;BME280;9947;57.722;12.012;2023-05-29T07:06:15;101696.34;;;16.28;52.15
19600;BME280;9947;57.722;12.012;2023-05-29T07:08:45;101697.28;;;16.70;52.82
19600;BME280;9947;57.722;12.012;2023-05-29T07:11:13;101699.69;;;16.31;52.09
19600;BME280;9947;57.722;12.012;2023-05-29T07:13:41;101694.56;;;16.70;50.96
19600;BME280;9947;57.722;12.012;2023-05-29T07:16:08;101702.03;;;16.57;51.85
19600;BME280;9947;57.722;12.012;2023-05-29T07:18:37;101706.69;;;16.45;51.89
19600;BME280;9947;57.722;12.012;2023-05-29T07:21:08;101709.47;;;16.02;52.28
19600;BME280;9947;57.722;12.012;2023-05-29T07:23:35;101708.66;;;15.90;52.96
19600;BME280;9947;57.722;12.012;2023-05-29T07:26:04;101709.31;;;15.71;53.33
19600;BME280;9947;57.722;12.012;2023-05-29T07:28:31;101709.84;;;15.65;52.82
19600;BME280;9947;57.722;12.012;2023-05-29T07:30:59;101714.69;;;15.62;55.23
19600;BME280;9947;57.722;12.012;2023-05-29T07:33:26;101706.41;;;15.95;54.33
19600;BME280;9947;57.722;12.012;2023-05-29T07:35:54;101702.50;;;16.09;54.63
19600;BME280;9947;57.722;12.012;2023-05-29T07:38:21;101699.88;;;16.19;55.21
19600;BME280;9947;57.722;12.012;2023-05-29T07:40:50;101695.69;;;16.15;52.93
19600;BME280;9947;57.722;12.012;2023-05-29T07:43:18;101694.97;;;16.01;51.52
19600;BME280;9947;57.722;12.012;2023-05-29T07:45:46;101696.56;;;16.04;50.34
19600;BME280;9947;57.722;12.012;2023-05-29T07:48:13;101695.44;;;16.07;49.68
19600;BME280;9947;57.722;12.012;2023-05-29T07:50:43;101702.00;;;16.15;50.41
19600;BME280;9947;57.722;12.012;2023-05-29T07:53:12;101709.25;;;16.26;47.14
19600;BME280;9947;57.722;12.012;2023-05-29T07:55:39;101704.56;;;15.85;47.44
19600;BME280;9947;57.722;12.012;2023-05-29T07:58:06;101704.53;;;16.28;46.32
19600;BME280;9947;57.722;12.012;2023-05-29T08:00:36;101711.09;;;16.57;47.97
19600;BME280;9947;57.722;12.012;2023-05-29T08:03:04;101708.41;;;16.25;46.99
19600;BME280;9947;57.722;12.012;2023-05-29T08:05:36;101709.66;;;16.21;48.38
19600;BME280;9947;57.722;12.012;2023-05-29T08:08:04;101713.06;;;16.14;47.52
19600;BME280;9947;57.722;12.012;2023-05-29T08:10:31;101705.22;;;16.62;45.58
19600;BME280;9947;57.722;12.012;2023-05-29T08:12:58;101703.38;;;16.83;46.05
19600;BME280;9947;57.722;12.012;2023-05-29T08:15:27;101703.06;;;16.98;44.97
19600;BME280;9947;57.722;12.012;2023-05-29T08:17:55;101700.28;;;16.67;46.99
19600;BME280;9947;57.722;12.012;2023-05-29T08:20:22;101697.47;;;16.78;48.08
19600;BME280;9947;57.722;12.012;2023-05-29T08:22:49;101696.16;;;17.34;47.50
19600;BME280;9947;57.722;12.012;2023-05-29T08:25:17;101696.41;;;17.21;46.77
19600;BME280;9947;57.722;12.012;2023-05-29T08:27:50;101697.47;;;17.39;48.31
19600;BME280;9947;57.722;12.012;2023-05-29T08:30:19;101698.13;;;17.22;46.24
19600;BME280;9947;57.722;12.012;2023-05-29T08:32:47;101698.34;;;17.09;42.91
19600;BME280;9947;57.722;12.012;2023-05-29T08:35:18;101693.00;;;16.77;45.05
19600;BME280;9947;57.722;12.012;2023-05-29T08:37:45;101689.59;;;17.15;43.79
19600;BME280;9947;57.722;12.012;2023-05-29T08:40:13;101696.59;;;16.78;44.52
19600;BME280;9947;57.722;12.012;2023-05-29T08:42:46;101699.00;;;16.92;48.14
19600;BME280;9947;57.722;12.012;2023-05-29T08:45:14;101700.47;;;16.75;47.07
19600;BME280;9947;57.722;12.012;2023-05-29T08:47:41;101694.91;;;17.07;47.90
19600;BME280;9947;57.722;12.012;2023-05-29T08:50:09;101697.41;;;17.20;48.40
19600;BME280;9947;57.722;12.012;2023-05-29T08:52:40;101697.50;;;16.88;46.48
19600;BME280;9947;57.722;12.012;2023-05-29T08:55:08;101697.06;;;17.13;45.23
19600;BME280;9947;57.722;12.012;2023-05-29T08:57:37;101695.84;;;17.27;44.79
19600;BME280;9947;57.722;12.012;2023-05-29T09:00:06;101696.59;;;16.99;44.94
19600;BME280;9947;57.722;12.012;2023-05-29T09:02:37;101714.88;;;17.08;44.93
19600;BME280;9947;57.722;12.012;2023-05-29T09:05:08;101705.34;;;17.23;44.71
19600;BME280;9947;57.722;12.012;2023-05-29T09:07:41;101708.50;;;17.28;44.50
19600;BME280;9947;57.722;12.012;2023-05-29T09:10:10;101707.50;;;17.29;42.37
19600;BME280;9947;57.722;12.012;2023-05-29T09:12:38;101702.72;;;17.62;41.05
19600;BME280;9947;57.722;12.012;2023-05-29T09:15:16;101714.59;;;16.80;45.55
19600;BME280;9947;57.722;12.012;2023-05-29T09:17:44;101719.44;;;16.77;47.98
19600;BME280;9947;57.722;12.012;2023-05-29T09:20:15;101721.22;;;16.87;48.81
19600;BME280;9947;57.722;12.012;2023-05-29T09:22:52;101722.38;;;17.15;50.00
19600;BME280;9947;57.722;12.012;2023-05-29T09:25:20;101731.78;;;17.22;50.56
19600;BME280;9947;57.722;12.012;2023-05-29T09:27:50;101720.63;;;17.05;48.75
19600;BME280;9947;57.722;12.012;2023-05-29T09:30:32;101712.84;;;17.31;50.68
19600;BME280;9947;57.722;12.012;2023-05-29T09:32:59;101729.94;;;17.23;54.36
19600;BME280;9947;57.722;12.012;2023-05-29T09:35:32;101717.28;;;17.22;53.97
19600;BME280;9947;57.722;12.012;2023-05-29T09:38:02;101725.06;;;16.75;55.13
19600;BME280;9947;57.722;12.012;2023-05-29T09:40:31;101720.50;;;16.85;55.59
19600;BME280;9947;57.722;12.012;2023-05-29T09:43:03;101716.34;;;16.91;53.73
19600;BME280;9947;57.722;12.012;2023-05-29T09:45:36;101715.56;;;17.00;52.22
19600;BME280;9947;57.722;12.012;2023-05-29T09:48:05;101726.50;;;17.00;48.48
19600;BME280;9947;57.722;12.012;2023-05-29T09:50:34;101727.72;;;17.17;46.25
19600;BME280;9947;57.722;12.012;2023-05-29T09:53:03;101723.59;;;17.22;46.24
19600;BME280;9947;57.722;12.012;2023-05-29T09:55:33;101727.50;;;16.99;44.19
19600;BME280;9947;57.722;12.012;2023-05-29T09:58:01;101731.97;;;17.00;46.97
19600;BME280;9947;57.722;12.012;2023-05-29T10:00:30;101721.28;;;16.55;45.20
19600;BME280;9947;57.722;12.012;2023-05-29T10:02:59;101715.47;;;16.49;47.03
19600;BME280;9947;57.722;12.012;2023-05-29T10:05:29;101723.09;;;16.34;45.66
19600;BME280;9947;57.722;12.012;2023-05-29T10:07:57;101711.66;;;16.72;46.67
19600;BME280;9947;57.722;12.012;2023-05-29T10:10:30;101712.78;;;16.38;47.42
19600;BME280;9947;57.722;12.012;2023-05-29T10:12:59;101712.19;;;16.34;46.39
19600;BME280;9947;57.722;12.012;2023-05-29T10:15:31;101711.41;;;16.22;46.21
19600;BME280;9947;57.722;12.012;2023-05-29T10:18:03;101703.75;;;16.16;46.80
19600;BME280;9947;57.722;12.012;2023-05-29T10:20:33;101705.47;;;16.17;48.47
19600;BME280;9947;57.722;12.012;2023-05-29T10:23:03;101710.19;;;16.15;47.24
19600;BME280;9947;57.722;12.012;2023-05-29T10:25:36;101718.81;;;16.52;47.22
19600;BME280;9947;57.722;12.012;2023-05-29T10:28:05;101713.09;;;16.55;47.43
19600;BME280;9947;57.722;12.012;2023-05-29T10:30:37;101710.56;;;16.43;46.30
19600;BME280;9947;57.722;12.012;2023-05-29T10:33:20;101707.91;;;16.52;47.42
19600;BME280;9947;57.722;12.012;2023-05-29T10:35:55;101712.25;;;16.23;45.71
19600;BME280;9947;57.722;12.012;2023-05-29T10:38:24;101709.75;;;16.52;45.57
19600;BME280;9947;57.722;12.012;2023-05-29T10:41:02;101699.34;;;16.78;45.98
19600;BME280;9947;57.722;12.012;2023-05-29T10:43:48;101699.50;;;17.07;45.16
19600;BME280;9947;57.722;12.012;2023-05-29T10:46:16;101713.72;;;17.41;45.79
19600;BME280;9947;57.722;12.012;2023-05-29T10:48:44;101708.69;;;17.36;45.40
19600;BME280;9947;57.722;12.012;2023-05-29T10:51:31;101705.22;;;17.34;44.96
19600;BME280;9947;57.722;12.012;2023-05-29T10:54:01;101707.22;;;17.32;43.55
19600;BME280;9947;57.722;12.012;2023-05-29T10:56:32;101707.72;;;17.16;45.45
19600;BME280;9947;57.722;12.012;2023-05-29T10:58:59;101705.66;;;17.39;44.92
19600;BME280;9947;57.722;12.012;2023-05-29T11:01:32;101702.25;;;17.47;43.95
19600;BME280;9947;57.722;12.012;2023-05-29T11:04:30;101695.78;;;17.98;44.46
19600;BME280;9947;57.722;12.012;2023-05-29T11:07:01;101696.91;;;17.85;40.00
19600;BME280;9947;57.722;12.012;2023-05-29T11:09:33;101698.66;;;17.96;41.47
19600;BME280;9947;57.722;12.012;2023-05-29T11:12:23;101693.22;;;17.56;40.50
19600;BME280;9947;57.722;12.012;2023-05-29T11:15:03;101697.09;;;17.53;40.16
19600;BME280;9947;57.722;12.012;2023-05-29T11:17:44;101701.31;;;17.27;41.97
19600;BME280;9947;57.722;12.012;2023-05-29T11:20:43;101704.13;;;17.16;42.53
19600;BME280;9947;57.722;12.012;2023-05-29T11:23:15;101701.25;;;16.87;43.92
19600;BME280;9947;57.722;12.012;2023-05-29T11:25:45;101697.91;;;17.04;43.94
19600;BME280;9947;57.722;12.012;2023-05-29T11:28:16;101691.13;;;17.29;44.53
19600;BME280;9947;57.722;12.012;2023-05-29T11:30:45;101691.56;;;17.34;45.78
19600;BME280;9947;57.722;12.012;2023-05-29T11:33:20;101703.94;;;17.38;45.62
19600;BME280;9947;57.722;12.012;2023-05-29T11:35:56;101702.00;;;17.60;44.43
19600;BME280;9947;57.722;12.012;2023-05-29T11:38:24;101703.28;;;17.55;44.27
19600;BME280;9947;57.722;12.012;2023-05-29T11:40:53;101698.34;;;17.80;44.87
19600;BME280;9947;57.722;12.012;2023-05-29T11:43:26;101703.38;;;17.84;45.18
19600;BME280;9947;57.722;12.012;2023-05-29T11:45:55;101697.53;;;17.99;43.44
19600;BME280;9947;57.722;12.012;2023-05-29T11:48:25;101706.28;;;17.93;44.36
19600;BME280;9947;57.722;12.012;2023-05-29T11:50:53;101692.44;;;17.94;45.08
19600;BME280;9947;57.722;12.012;2023-05-29T11:53:21;101700.41;;;17.97;44.30
19600;BME280;9947;57.722;12.012;2023-05-29T11:55:48;101699.94;;;18.21;43.90
19600;BME280;9947;57.722;12.012;2023-05-29T11:58:16;101706.91;;;18.25;41.54
19600;BME280;9947;57.722;12.012;2023-05-29T12:00:48;101704.84;;;18.17;42.40
19600;BME280;9947;57.722;12.012;2023-05-29T12:03:17;101707.28;;;17.92;41.97
19600;BME280;9947;57.722;12.012;2023-05-29T12:05:47;101711.88;;;17.72;41.89
19600;BME280;9947;57.722;12.012;2023-05-29T12:08:21;101702.19;;;17.27;40.47
19600;BME280;9947;57.722;12.012;2023-05-29T12:10:48;101701.03;;;17.30;41.87
19600;BME280;9947;57.722;12.012;2023-05-29T12:13:15;101700.88;;;17.22;43.49
19600;BME280;9947;57.722;12.012;2023-05-29T12:15:44;101700.53;;;17.46;41.55
19600;BME280;9947;57.722;12.012;2023-05-29T12:18:16;101711.72;;;17.43;41.81
19600;BME280;9947;57.722;12.012;2023-05-29T12:20:45;101705.78;;;17.28;44.04
19600;BME280;9947;57.722;12.012;2023-05-29T12:23:13;101708.09;;;17.33;42.50
19600;BME280;9947;57.722;12.012;2023-05-29T12:25:40;101710.53;;;17.26;42.68
19600;BME280;9947;57.722;12.012;2023-05-29T12:28:15;101711.22;;;17.18;44.01
19600;BME280;9947;57.722;12.012;2023-05-29T12:30:44;101715.25;;;17.24;43.63
19600;BME280;9947;57.722;12.012;2023-05-29T12:33:31;101720.91;;;17.02;45.26
19600;BME280;9947;57.722;12.012;2023-05-29T12:36:04;101725.91;;;16.97;42.27
19600;BME280;9947;57.722;12.012;2023-05-29T12:38:32;101710.38;;;16.97;41.60
19600;BME280;9947;57.722;12.012;2023-05-29T12:41:01;101701.38;;;16.85;40.39
19600;BME280;9947;57.722;12.012;2023-05-29T12:43:30;101701.66;;;16.82;44.28
19600;BME280;9947;57.722;12.012;2023-05-29T12:45:59;101699.59;;;16.95;41.73
19600;BME280;9947;57.722;12.012;2023-05-29T12:48:32;101692.63;;;17.12;41.51
19600;BME280;9947;57.722;12.012;2023-05-29T12:51:04;101696.81;;;17.66;42.54
19600;BME280;9947;57.722;12.012;2023-05-29T12:53:33;101694.78;;;17.99;44.42
19600;BME280;9947;57.722;12.012;2023-05-29T12:56:02;101698.22;;;17.91;42.71
19600;BME280;9947;57.722;12.012;2023-05-29T12:58:30;101694.88;;;17.78;42.26
19600;BME280;9947;57.722;12.012;2023-05-29T13:00:57;101696.56;;;17.69;43.02
19600;BME280;9947;57.722;12.012;2023-05-29T13:03:25;101696.50;;;17.50;38.83
19600;BME280;9947;57.722;12.012;2023-05-29T13:05:55;101698.19;;;17.81;42.41